Minatitlan Airport
MMMT : rendu visible

Aérodrome :











RETROUVEZ-NOUS SUR...

 
LOGIN :

S'inscrire | Disclaimer

   EN    FR    IT 

 









Légende :    VFR   VFR Marginal   IFR   IFR Intensif   IFR Très Intensif
Visi : 
Plafond : 
>= 8 km
>= 3000ft
5 à 8 km
1000 à 3000 ft
1500m à 5 km
500 à 1000 ft
800 à 1500m
200 à 500 ft
< 800m
< 200 ft
Symboles :   Orages  Brouillard  Fortes neiges  Fortes précipitations  Vent > 20 kt






- Altitude de l'aérodrome : 36 ft
- Code IATA : MTT


MMMT - Minatitlan

DERNIER METAR :
  • 271951Z 00000KT 7SM BKN020 28/23 A2990 RMK 8/500

METARs EXPIRÉS :
  • 271840Z 00000KT 8SM BKN020 28/23 A2994 RMK 8/100
  • 271752Z 00000KT 6SM BKN020TCU 28/23 A2996 RMK SLP221 55000 903 8/200

TAF TAF MMMT
Valide du 27 à 18h jusqu'au 28 à 18h UTC


271637Z 2718/2818 36010KT 6SM HZ BKN020
FM280300 03006KT 6SM HZ BKN010
TEMPO 2810/2814 1SM BR HZ BKN006 OVC010
FM281500 18006KT 6SM HZ BKN010



MET'MAP, la Météo Aéronautique d'un coup d'oeil ! - Copyright ORBIFLY Décembre 2007 - Disclaimer

ORBIFLY MET'MAP TEAM :

Programmation & Développement : Alexandra Zaïnal
Sur une idée originale de : Baudouin d'Aumeries
Assistance à la programmation : Marc-Olivier Méhu
Soutien technique & logistique : Manuel Goepfert

Contact : metmap@orbifly.com




SOURCES & CREDITS :

   NOAA       Earth
Advisory